Monastir Skanes, Tunisie

00:47 CET le 03 septembre 2014 (GMT +0100)
Habib Bourguiba | Change Station
CLOSE
Current Station
Aéroport
Location: Habib Bourguiba,
Altitude: 7 ft
Stations météo à proximité

Alt. 7 ft 35.76 °N, 10.75 °E | Updated 17 minutes ago

Partly Cloudy
Partiellement nuageux
77 ° F
Paraît 77 ° F
N
15
Vent Variable Vent de ONO

Aujourd'hui
Haut(e) -- | Bas -- ° F
--% Risque de précip.
Hier
Haut(e) -- | Bas -- ° F
Precip. -- pouce
5:50 AM 6:41 PM
Premier quartier, 56% visible
Pression 29.86 pouce
Visibilité 6.2 Miles terrestres
Nuages Peu 2000 ft
Point de rosée 61 ° F
Humidité 57%
Précipitations 0.00 pouce
Profondeur de la couche neigeuse Non disponible.
UV 0 sur 12
Pollen Non disponible.
Qualité de l'air Non disponible.
Flu Activity Non disponible.
METAR DTMB 022330Z 29013KT 9999 FEW020 25/16 Q1011 NOSIG

More Conditions Fewer Conditions

Pression 29.86 pouce
Visibilité 6.2 Miles terrestres
Nuages Peu 2000 ft
Point de rosée 61 ° F
Humidité 57%
Précipitations 0.00 pouce
Profondeur de la couche neigeuse Non disponible.
UV 0 sur 12
Pollen Non disponible.
Qualité de l'air Non disponible.
Flu Activity Non disponible.
METAR DTMB 022330Z 29013KT 9999 FEW020 25/16 Q1011 NOSIG

More Conditions Fewer Conditions

10-Day Weather Forecast

Almanac

Astronomie

Sep. 03, 2014 Lever Coucher
Temps réel 05:50 CET 18:41 CET
Crépuscule civil 05:24 CET 19:07 CET
Crépuscule nautique 04:53 CET 19:38 CET
Crépuscule astronomique 04:21 CET 20:10 CET
Lune 14:01 CET (9/3) Pas de coucher de lune
Durée de lumière visible 13h 43m
Longueur du jour
12h 51m
Tomorrow will be 2m 11s shorter.
Premier quartier, 56% of the Moon is Illuminated
Sep 2
Premier quartier
Sep 8
Pleine lune
Sep 15
Dernier quartier
Sep 24
Nouveau
Oct 1
Premier quartier

Les extrêmes de température d’hier

Country Highs Country Lows

Community

WunderPhotos

Upload Photos

1,749,799 Photos téléchargées !

Nearby

Qualité de l'air

Not available.

Épaisseur de neige

Not available.

Activité sismique

Ville Distance Mag. Time & Date
No recent earthquake activity has been reported nearby.
Minimum magnitude displayed is 2.5.

Températures des eaux côtières

Lieu Température
Aucun rapport de station

Stations météo à proximité